createdAt,value
2023-02-11T00:02:23.514Z,13.65
2023-02-11T00:04:51.577Z,12.70
2023-02-11T00:07:19.650Z,13.80
2023-02-11T00:09:47.671Z,15.95
2023-02-11T00:12:19.549Z,16.52
2023-02-11T00:14:47.600Z,13.90
2023-02-11T00:17:15.584Z,14.07
2023-02-11T00:19:43.686Z,16.23
2023-02-11T00:22:11.686Z,13.70
2023-02-11T00:24:39.661Z,14.68
2023-02-11T00:27:07.651Z,14.35
2023-02-11T00:29:38.247Z,13.77
2023-02-11T00:32:06.955Z,13.68
2023-02-11T00:34:35.599Z,12.70
2023-02-11T00:37:04.262Z,12.23
2023-02-11T00:39:33.129Z,13.45
2023-02-11T00:42:01.305Z,13.52
2023-02-11T00:44:29.310Z,14.13
2023-02-11T00:46:58.684Z,13.85
2023-02-11T00:49:26.653Z,13.43
2023-02-11T00:51:54.647Z,14.50
2023-02-11T00:54:22.596Z,14.23
2023-02-11T00:56:50.611Z,14.25
2023-02-11T00:59:18.618Z,14.30
2023-02-11T01:01:46.729Z,13.70
2023-02-11T01:04:16.183Z,15.85
2023-02-11T01:06:44.237Z,15.30
2023-02-11T01:09:12.247Z,14.57
2023-02-11T01:11:40.229Z,14.18
2023-02-11T01:14:08.212Z,14.00
2023-02-11T01:16:36.197Z,14.93
2023-02-11T01:19:04.393Z,13.95
2023-02-11T01:21:33.748Z,15.18
2023-02-11T01:24:01.777Z,15.95
2023-02-11T01:26:29.798Z,15.43
2023-02-11T01:29:00.070Z,15.85
2023-02-11T01:31:28.503Z,16.55
2023-02-11T01:33:56.558Z,15.75
2023-02-11T01:36:24.602Z,15.50
2023-02-11T01:38:54.060Z,15.27
2023-02-11T01:41:22.590Z,14.95
2023-02-11T01:43:51.878Z,14.25
2023-02-11T01:46:32.055Z,16.50
2023-02-11T01:49:05.506Z,16.30
2023-02-11T01:51:38.030Z,15.63
2023-02-11T01:54:29.998Z,15.95
2023-02-11T01:57:18.012Z,16.57
2023-02-11T01:59:51.766Z,16.15
2023-02-11T02:02:24.542Z,18.55
2023-02-11T02:04:58.567Z,20.80
2023-02-11T02:07:33.694Z,20.58
2023-02-11T02:10:07.581Z,20.27
2023-02-11T02:12:35.607Z,21.63
2023-02-11T02:15:25.214Z,22.67
2023-02-11T02:18:04.411Z,23.58
2023-02-11T02:21:20.992Z,24.40
2023-02-11T02:24:32.877Z,22.00
2023-02-11T02:27:30.731Z,22.00
2023-02-11T02:30:36.049Z,21.92
2023-02-11T02:33:23.431Z,21.05
2023-02-11T02:35:59.276Z,24.20
2023-02-11T02:38:35.078Z,31.85
2023-02-11T02:41:07.364Z,33.75
2023-02-11T02:43:36.845Z,29.50
2023-02-11T02:46:16.868Z,30.13
2023-02-11T02:48:49.465Z,30.73
2023-02-11T02:51:37.259Z,32.45
2023-02-11T02:54:30.587Z,35.72
2023-02-11T02:57:08.713Z,36.28
2023-02-11T02:59:51.595Z,39.22
2023-02-11T03:02:26.030Z,38.50
2023-02-11T03:05:03.561Z,38.22
2023-02-11T03:07:41.213Z,43.25
2023-02-11T03:10:14.981Z,38.10
2023-02-11T03:12:45.339Z,42.67
2023-02-11T03:15:14.884Z,41.28
2023-02-11T03:17:46.955Z,43.42
2023-02-11T03:20:19.333Z,42.70
2023-02-11T03:25:17.854Z,43.58
2023-02-11T03:27:52.540Z,49.28
2023-02-11T03:30:26.458Z,56.95
2023-02-11T03:33:01.089Z,58.20
2023-02-11T03:35:38.833Z,56.55
2023-02-11T03:38:11.781Z,62.20
2023-02-11T03:40:42.231Z,61.95
2023-02-11T03:43:13.428Z,65.97
2023-02-11T03:45:42.143Z,67.82
2023-02-11T03:48:15.629Z,70.22
2023-02-11T03:50:47.432Z,65.68
2023-02-11T03:53:16.869Z,75.43
2023-02-11T03:55:46.625Z,65.90
2023-02-11T03:58:14.720Z,68.90
2023-02-11T04:00:44.085Z,63.83
2023-02-11T04:03:13.243Z,64.93
2023-02-11T04:05:41.710Z,62.17
2023-02-11T04:08:11.130Z,61.92
2023-02-11T04:10:39.160Z,66.22
2023-02-11T04:13:07.167Z,65.53
2023-02-11T04:15:35.225Z,68.38
2023-02-11T04:18:03.682Z,67.78
2023-02-11T04:20:31.725Z,69.88
2023-02-11T04:22:59.738Z,71.82
2023-02-11T04:25:29.260Z,62.90
2023-02-11T04:27:57.374Z,70.05
2023-02-11T04:30:25.483Z,71.90
2023-02-11T04:32:54.334Z,72.28
2023-02-11T04:35:22.468Z,76.28
2023-02-11T04:37:50.471Z,72.70
2023-02-11T04:40:18.776Z,73.60
2023-02-11T04:42:48.092Z,79.28
2023-02-11T04:45:16.197Z,72.82
2023-02-11T04:47:44.182Z,68.70
2023-02-11T04:50:12.152Z,69.85
2023-02-11T04:52:40.116Z,76.45
2023-02-11T04:55:08.521Z,73.53
2023-02-11T04:57:36.548Z,76.15
2023-02-11T05:00:07.433Z,75.60
2023-02-11T05:02:35.457Z,77.95
2023-02-11T05:05:03.522Z,83.95
2023-02-11T05:07:31.588Z,87.90
2023-02-11T05:09:59.581Z,88.38
2023-02-11T05:12:27.616Z,96.57
2023-02-11T05:14:55.701Z,93.78
2023-02-11T05:17:25.061Z,98.88
2023-02-11T05:19:53.053Z,96.10
2023-02-11T05:22:21.919Z,92.57
2023-02-11T05:24:50.164Z,94.97
2023-02-11T05:27:18.165Z,103.00
2023-02-11T05:29:46.123Z,96.28
2023-02-11T05:32:14.081Z,105.90
2023-02-11T05:34:43.550Z,103.75
2023-02-11T05:37:11.647Z,101.10
2023-02-11T05:39:39.650Z,103.50
2023-02-11T05:42:08.097Z,102.53
2023-02-11T05:44:36.107Z,100.85
2023-02-11T05:47:04.576Z,100.22
2023-02-11T05:49:32.713Z,104.70
2023-02-11T05:52:02.053Z,95.10
2023-02-11T05:54:30.118Z,94.70
2023-02-11T05:56:58.102Z,93.05
2023-02-11T05:59:26.348Z,94.68
2023-02-11T06:01:54.384Z,101.30
2023-02-11T06:04:22.859Z,102.35
2023-02-11T06:06:50.824Z,108.20
2023-02-11T06:09:20.200Z,105.63
2023-02-11T06:11:48.146Z,109.68
2023-02-11T06:14:16.189Z,117.68
2023-02-11T06:16:44.312Z,121.88
2023-02-11T06:19:12.631Z,125.53
2023-02-11T06:21:44.171Z,139.10
2023-02-11T06:24:24.687Z,145.05
2023-02-11T06:27:06.548Z,158.48
2023-02-11T06:29:34.553Z,149.55
2023-02-11T06:32:02.785Z,165.68
2023-02-11T06:34:30.856Z,161.68
2023-02-11T06:36:58.865Z,178.25
2023-02-11T06:39:26.858Z,173.20
2023-02-11T06:41:54.891Z,170.30
2023-02-11T06:44:24.348Z,191.70
2023-02-11T06:46:52.400Z,205.95
2023-02-11T06:49:20.371Z,202.05
2023-02-11T06:51:48.392Z,203.90
2023-02-11T06:54:16.410Z,201.95
2023-02-11T06:56:44.426Z,199.48
2023-02-11T06:59:16.658Z,209.82
2023-02-11T07:01:46.111Z,203.38
2023-02-11T07:04:14.764Z,201.27
2023-02-11T07:06:43.078Z,199.18
2023-02-11T07:09:11.127Z,200.70
2023-02-11T07:11:39.133Z,193.63
2023-02-11T07:14:09.305Z,190.25
2023-02-11T07:16:37.807Z,201.45
2023-02-11T07:19:07.260Z,188.00
2023-02-11T07:21:35.566Z,199.60
2023-02-11T07:24:08.885Z,214.98
2023-02-11T07:26:41.264Z,203.55
2023-02-11T07:29:09.310Z,204.38
2023-02-11T07:31:37.538Z,217.75
2023-02-11T07:34:06.954Z,227.52
2023-02-11T07:36:35.039Z,233.38
2023-02-11T07:39:03.056Z,239.68
2023-02-11T07:41:31.164Z,242.90
2023-02-11T07:43:59.193Z,248.48
2023-02-11T07:46:28.837Z,249.85
2023-02-11T07:48:57.432Z,257.15
2023-02-11T07:51:29.733Z,265.77
2023-02-11T07:54:00.390Z,274.50
2023-02-11T07:56:29.620Z,267.95
2023-02-11T07:59:00.977Z,273.70
2023-02-11T08:01:29.235Z,277.67
2023-02-11T08:03:58.057Z,272.67
2023-02-11T08:06:29.024Z,273.83
2023-02-11T08:08:57.248Z,272.20
2023-02-11T08:11:26.725Z,269.98
2023-02-11T08:13:55.514Z,281.63
2023-02-11T08:16:26.546Z,269.83
2023-02-11T08:18:55.214Z,266.98
2023-02-11T08:21:23.288Z,278.25
2023-02-11T08:23:53.325Z,286.23
2023-02-11T08:26:24.430Z,276.38
2023-02-11T08:28:54.468Z,274.77
2023-02-11T08:31:24.750Z,277.05
2023-02-11T08:33:54.658Z,267.85
2023-02-11T08:36:29.095Z,266.40
2023-02-11T08:39:17.418Z,270.90
2023-02-11T08:41:48.468Z,269.67
2023-02-11T08:44:16.822Z,269.17
2023-02-11T08:46:44.870Z,257.15
2023-02-11T08:49:12.954Z,258.67
2023-02-11T08:51:41.364Z,249.27
2023-02-11T08:54:10.775Z,227.15
2023-02-11T08:56:39.381Z,222.18
2023-02-11T08:59:09.158Z,200.15
2023-02-11T09:01:37.422Z,173.80
2023-02-11T09:04:05.900Z,162.38
2023-02-11T09:06:34.152Z,139.90
2023-02-11T09:09:02.491Z,112.93
2023-02-11T09:11:34.507Z,89.53
2023-02-11T09:14:03.960Z,72.65
2023-02-11T09:31:52.373Z,47.50
2023-02-11T09:34:20.450Z,37.78
2023-02-11T09:36:48.595Z,35.63
2023-02-11T09:39:18.933Z,32.53
2023-02-11T09:42:31.433Z,31.00
2023-02-11T09:45:01.325Z,33.30
2023-02-11T09:47:34.067Z,31.48
2023-02-11T09:50:06.045Z,29.38
2023-02-11T09:52:40.144Z,29.02
2023-02-11T09:55:18.545Z,29.30
2023-02-11T09:57:46.754Z,28.52
2023-02-11T10:00:22.822Z,26.67
2023-02-11T10:03:18.721Z,30.00
2023-02-11T10:06:11.384Z,27.13
2023-02-11T10:08:50.905Z,26.60
2023-02-11T10:11:31.977Z,28.83
2023-02-11T10:14:17.810Z,26.40
2023-02-11T10:17:00.024Z,26.02
2023-02-11T10:19:44.249Z,25.52
2023-02-11T10:22:19.456Z,23.77
2023-02-11T10:24:53.118Z,21.20
2023-02-11T10:27:23.022Z,22.83
2023-02-11T10:29:54.710Z,23.33
2023-02-11T10:32:33.839Z,24.13
2023-02-11T10:35:11.307Z,23.60
2023-02-11T10:37:39.358Z,21.85
2023-02-11T10:40:13.732Z,20.27
2023-02-11T10:42:45.425Z,23.23
2023-02-11T11:21:19.535Z,20.85
2023-02-11T11:23:56.926Z,21.67
2023-02-11T11:56:31.343Z,24.42
2023-02-11T11:59:03.617Z,20.58
2023-02-11T12:04:26.292Z,20.13
2023-02-11T12:07:18.017Z,18.90
2023-02-11T12:09:56.865Z,19.85
2023-02-11T12:12:36.098Z,19.70
2023-02-11T12:15:15.607Z,21.88
2023-02-11T12:18:00.717Z,18.45
2023-02-11T12:20:38.816Z,18.80
2023-02-11T12:23:22.733Z,28.52
2023-02-11T12:25:58.800Z,24.17
2023-02-11T12:28:39.548Z,30.13
2023-02-11T12:31:23.125Z,35.20
2023-02-11T12:34:15.896Z,37.22
2023-02-11T12:39:33.879Z,19.25
2023-02-11T12:42:36.457Z,19.50
2023-02-11T12:45:17.919Z,18.05
2023-02-11T12:47:57.657Z,23.92
2023-02-11T12:50:35.986Z,16.50
2023-02-11T12:53:16.261Z,17.13
2023-02-11T12:55:47.983Z,15.57
2023-02-11T12:58:21.765Z,16.08
2023-02-11T13:00:57.086Z,17.13
2023-02-11T13:03:28.648Z,24.98
2023-02-11T13:06:01.037Z,15.17
2023-02-11T13:11:02.390Z,13.57
2023-02-11T13:16:07.368Z,14.23
2023-02-11T13:18:49.336Z,19.73
2023-02-11T13:21:29.319Z,14.32
2023-02-11T13:24:02.867Z,11.80
2023-02-11T13:26:37.459Z,12.90
2023-02-11T13:29:21.984Z,10.40
2023-02-11T13:32:09.627Z,11.77
2023-02-11T13:34:58.551Z,13.60
2023-02-11T13:37:28.579Z,12.65
2023-02-11T13:40:02.120Z,15.30
2023-02-11T13:42:31.705Z,34.08
2023-02-11T13:45:00.105Z,13.63
2023-02-11T13:47:33.606Z,9.90
2023-02-11T13:50:07.273Z,10.05
2023-02-11T13:52:38.322Z,8.70
2023-02-11T13:55:16.053Z,12.68
2023-02-11T13:57:44.448Z,9.38
2023-02-11T14:00:49.410Z,8.07
2023-02-11T14:03:48.918Z,13.70
2023-02-11T14:06:37.981Z,10.35
2023-02-11T14:09:26.497Z,21.48
2023-02-11T14:11:57.181Z,9.57
2023-02-11T14:14:27.568Z,7.03
2023-02-11T14:17:30.936Z,11.90
2023-02-11T14:20:02.089Z,10.48
2023-02-11T14:22:32.919Z,6.68
2023-02-11T14:25:03.187Z,7.20
2023-02-11T14:27:37.582Z,17.38
2023-02-11T14:30:32.400Z,7.05
2023-02-11T14:33:27.740Z,8.82
2023-02-11T14:36:06.683Z,9.15
2023-02-11T14:38:50.521Z,7.03
2023-02-11T14:41:22.922Z,9.52
2023-02-11T14:43:55.027Z,16.15
2023-02-11T14:46:27.725Z,7.95
2023-02-11T14:48:59.739Z,8.45
2023-02-11T14:51:31.550Z,14.85
2023-02-11T14:54:03.825Z,11.15
2023-02-11T14:59:03.646Z,14.98
2023-02-11T15:01:35.131Z,8.80
2023-02-11T15:04:04.655Z,15.43
2023-02-11T15:06:37.581Z,7.03
2023-02-11T15:09:17.811Z,7.72
2023-02-11T15:11:49.640Z,17.40
2023-02-11T15:14:24.010Z,7.43
2023-02-11T15:16:54.715Z,6.80
2023-02-11T15:19:26.777Z,8.77
2023-02-11T15:21:59.160Z,7.22
2023-02-11T15:27:01.173Z,7.78
2023-02-11T15:29:30.690Z,13.07
2023-02-11T15:32:07.308Z,10.50
2023-02-11T15:34:35.890Z,9.70
2023-02-11T15:37:05.719Z,16.83
2023-02-11T15:39:37.491Z,11.52
2023-02-11T15:42:23.487Z,8.88
2023-02-11T15:45:08.725Z,10.35
2023-02-11T15:47:37.223Z,8.27
2023-02-11T15:50:06.621Z,22.33
2023-02-11T15:52:36.452Z,13.95
2023-02-11T15:55:05.154Z,9.27
2023-02-11T15:57:35.531Z,7.72
2023-02-11T16:00:07.249Z,11.00
2023-02-11T16:02:44.863Z,11.48
2023-02-11T16:05:28.611Z,8.90
2023-02-11T16:07:59.374Z,15.68
2023-02-11T16:10:30.709Z,10.45
2023-02-11T16:13:19.906Z,10.05
2023-02-11T16:15:54.914Z,10.65
2023-02-11T16:18:37.921Z,10.45
2023-02-11T16:21:12.858Z,12.55
2023-02-11T16:23:43.218Z,8.60
2023-02-11T16:26:22.064Z,10.77
2023-02-11T16:28:50.267Z,10.05
2023-02-11T16:31:18.797Z,8.60
2023-02-11T16:33:47.029Z,11.27
2023-02-11T16:36:18.144Z,12.20
2023-02-11T16:38:47.846Z,81.97
2023-02-11T16:41:15.887Z,20.17
2023-02-11T16:43:43.911Z,164.20
2023-02-11T16:46:15.411Z,28.92
2023-02-11T16:48:43.598Z,112.10
2023-02-11T16:51:14.245Z,13.23
2023-02-11T16:53:42.251Z,20.90
2023-02-11T16:56:17.207Z,12.48
2023-02-11T16:58:45.558Z,9.57
2023-02-11T17:01:14.446Z,12.27
2023-02-11T17:03:43.755Z,10.43
2023-02-11T17:06:13.506Z,31.25
2023-02-11T17:08:42.048Z,46.90
2023-02-11T17:11:10.083Z,15.55
2023-02-11T17:13:41.623Z,24.58
2023-02-11T17:16:18.326Z,33.73
2023-02-11T17:18:46.569Z,12.88
2023-02-11T17:21:14.942Z,17.70
2023-02-11T17:23:43.208Z,13.75
2023-02-11T17:26:11.285Z,45.78
2023-02-11T17:28:40.689Z,63.38
2023-02-11T17:31:10.281Z,18.42
2023-02-11T17:33:39.500Z,13.10
2023-02-11T17:36:09.058Z,17.42
2023-02-11T17:38:38.573Z,11.65
2023-02-11T17:41:07.466Z,11.93
2023-02-11T17:43:35.803Z,12.40
2023-02-11T17:46:10.154Z,11.07
2023-02-11T17:48:39.711Z,12.93
2023-02-11T17:51:22.366Z,28.25
2023-02-11T17:56:19.107Z,11.75
2023-02-11T17:58:47.459Z,14.65
2023-02-11T18:01:17.376Z,11.80
2023-02-11T18:03:45.728Z,11.25
2023-02-11T18:06:14.108Z,11.63
2023-02-11T18:08:43.254Z,13.00
2023-02-11T18:11:12.636Z,12.20
2023-02-11T18:13:40.840Z,11.57
2023-02-11T18:16:09.569Z,14.52
2023-02-11T18:18:39.663Z,22.38
2023-02-11T18:21:08.952Z,14.82
2023-02-11T18:23:37.205Z,14.73
2023-02-11T18:26:08.657Z,14.35
2023-02-11T18:28:36.892Z,12.00
2023-02-11T18:31:05.978Z,15.02
2023-02-11T18:33:34.797Z,15.32
2023-02-11T18:36:08.425Z,13.82
2023-02-11T18:38:37.167Z,11.93
2023-02-11T18:41:07.316Z,13.50
2023-02-11T18:43:36.410Z,15.15
2023-02-11T18:46:08.788Z,11.80
2023-02-11T18:51:09.756Z,11.98
2023-02-11T18:53:38.316Z,14.68
2023-02-11T18:56:11.195Z,13.23
2023-02-11T18:58:40.000Z,14.25
2023-02-11T19:01:13.538Z,16.40
2023-02-11T19:03:41.976Z,149.05
2023-02-11T19:06:15.619Z,25.20
2023-02-11T19:08:44.155Z,19.77
2023-02-11T19:11:12.739Z,17.75
2023-02-11T19:13:40.850Z,15.68
2023-02-11T19:16:11.473Z,15.15
2023-02-11T19:18:39.808Z,13.55
2023-02-11T19:21:09.893Z,13.93
2023-02-11T19:23:40.050Z,14.63
2023-02-11T19:26:08.598Z,25.88
2023-02-11T19:28:39.494Z,13.73
2023-02-11T19:31:09.283Z,18.55
2023-02-11T19:33:38.078Z,14.32
2023-02-11T19:36:07.838Z,14.35
2023-02-11T19:38:37.588Z,15.45
2023-02-11T19:41:07.414Z,13.85
2023-02-11T19:43:36.182Z,13.93
2023-02-11T19:46:05.553Z,13.90
2023-02-11T19:48:34.017Z,13.77
2023-02-11T19:51:11.450Z,13.82
2023-02-11T19:53:41.206Z,14.15
2023-02-11T19:56:10.993Z,13.98
2023-02-11T19:58:40.793Z,13.93
2023-02-11T20:01:10.633Z,14.63
2023-02-11T20:03:42.152Z,14.05
2023-02-11T20:06:14.663Z,14.57
2023-02-11T20:08:43.166Z,15.82
2023-02-11T20:11:15.140Z,15.15
2023-02-11T20:13:44.043Z,15.23
2023-02-11T20:16:14.171Z,15.15
2023-02-11T20:18:42.821Z,14.95
2023-02-11T20:21:11.886Z,15.05
2023-02-11T20:23:41.701Z,14.57
2023-02-11T20:26:14.735Z,15.43
2023-02-11T20:28:43.708Z,15.27
2023-02-11T20:31:12.714Z,14.10
2023-02-11T20:33:44.771Z,15.75
2023-02-11T20:36:16.686Z,15.63
2023-02-11T20:38:45.681Z,16.65
2023-02-11T20:41:16.958Z,15.50
2023-02-11T20:43:47.327Z,15.40
2023-02-11T20:46:18.630Z,16.35
2023-02-11T20:48:46.820Z,16.35
2023-02-11T20:51:16.884Z,19.33
2023-02-11T20:53:49.227Z,17.35
2023-02-11T20:58:48.006Z,17.95
2023-02-11T21:01:19.050Z,17.55
2023-02-11T21:03:50.880Z,17.13
2023-02-11T21:06:19.399Z,16.77
2023-02-11T21:08:47.660Z,16.45
2023-02-11T21:11:16.477Z,16.58
2023-02-11T21:13:45.901Z,15.10
2023-02-11T21:16:17.008Z,16.10
2023-02-11T21:18:45.224Z,17.17
2023-02-11T21:21:13.252Z,18.55
2023-02-11T21:23:41.280Z,16.98
2023-02-11T21:26:09.980Z,17.65
2023-02-11T21:28:40.897Z,17.48
2023-02-11T21:31:11.064Z,18.08
2023-02-11T21:33:39.222Z,19.23
2023-02-11T21:36:08.059Z,18.15
2023-02-11T21:38:36.905Z,18.25
2023-02-11T21:41:05.543Z,18.40
2023-02-11T21:43:34.603Z,19.08
2023-02-11T21:46:07.241Z,19.60
2023-02-11T21:48:36.748Z,18.58
2023-02-11T21:51:06.386Z,19.95
2023-02-11T21:53:35.069Z,20.05
2023-02-11T21:56:05.105Z,21.15
2023-02-11T21:58:33.165Z,18.42
2023-02-11T22:01:01.244Z,18.25
2023-02-11T22:03:29.338Z,17.90
2023-02-11T22:05:58.734Z,18.17
2023-02-11T22:08:26.840Z,17.80
2023-02-11T22:10:54.865Z,19.08
2023-02-11T22:13:22.864Z,18.08
2023-02-11T22:15:59.270Z,19.10
2023-02-11T22:18:27.495Z,21.50
2023-02-11T22:21:01.178Z,19.77
2023-02-11T22:23:29.570Z,20.58
2023-02-11T22:25:58.102Z,19.70
2023-02-11T22:28:27.055Z,20.85
2023-02-11T22:30:56.161Z,20.58
2023-02-11T22:33:24.675Z,21.02
2023-02-11T22:36:00.458Z,21.20
2023-02-11T22:38:31.090Z,21.80
2023-02-11T22:40:59.247Z,22.10
2023-02-11T22:43:28.385Z,20.17
2023-02-11T22:45:57.083Z,20.77
2023-02-11T22:48:25.233Z,20.95
2023-02-11T22:50:53.244Z,21.60
2023-02-11T22:53:25.463Z,22.23
2023-02-11T22:55:53.831Z,21.08
2023-02-11T22:58:22.143Z,21.50
2023-02-11T23:00:50.202Z,23.55
2023-02-11T23:03:18.254Z,22.55
2023-02-11T23:05:46.262Z,23.58
2023-02-11T23:08:14.343Z,19.67
2023-02-11T23:10:43.782Z,20.77
2023-02-11T23:13:11.756Z,19.40
2023-02-11T23:15:41.745Z,18.48
2023-02-11T23:18:10.822Z,18.98
2023-02-11T23:20:40.989Z,18.23
2023-02-11T23:23:09.145Z,18.85
2023-02-11T23:25:44.335Z,19.95
2023-02-11T23:28:13.313Z,18.65
2023-02-11T23:30:42.390Z,20.00
2023-02-11T23:33:10.380Z,19.75
2023-02-11T23:35:38.486Z,18.73
2023-02-11T23:38:06.577Z,19.70
2023-02-11T23:40:34.611Z,19.98
2023-02-11T23:43:04.041Z,17.85
2023-02-11T23:45:32.252Z,19.08
2023-02-11T23:48:00.237Z,18.90
2023-02-11T23:50:28.301Z,19.25
2023-02-11T23:52:56.381Z,19.23
2023-02-11T23:55:24.382Z,20.40
2023-02-11T23:57:52.369Z,19.33
